sensor_id;sensor_type;location;lat;lon;timestamp;P1;durP1;ratioP1;P2;durP2;ratioP2
15254;SDS011;7730;49.610;11.136;2023-12-28T00:00:32;9.93;;;4.70;;
15254;SDS011;7730;49.610;11.136;2023-12-28T00:02:59;6.22;;;2.80;;
15254;SDS011;7730;49.610;11.136;2023-12-28T00:05:26;6.55;;;2.83;;
15254;SDS011;7730;49.610;11.136;2023-12-28T00:07:54;6.17;;;2.60;;
15254;SDS011;7730;49.610;11.136;2023-12-28T00:10:23;6.03;;;2.70;;
15254;SDS011;7730;49.610;11.136;2023-12-28T00:12:50;5.00;;;2.70;;
15254;SDS011;7730;49.610;11.136;2023-12-28T00:15:17;5.50;;;2.67;;
15254;SDS011;7730;49.610;11.136;2023-12-28T00:17:45;5.72;;;2.75;;
15254;SDS011;7730;49.610;11.136;2023-12-28T00:20:12;5.70;;;2.70;;
15254;SDS011;7730;49.610;11.136;2023-12-28T00:22:42;5.47;;;2.77;;
15254;SDS011;7730;49.610;11.136;2023-12-28T00:25:10;5.90;;;2.97;;
15254;SDS011;7730;49.610;11.136;2023-12-28T00:30:13;5.15;;;2.70;;
15254;SDS011;7730;49.610;11.136;2023-12-28T00:32:42;5.47;;;2.80;;
15254;SDS011;7730;49.610;11.136;2023-12-28T00:35:09;6.60;;;2.60;;
15254;SDS011;7730;49.610;11.136;2023-12-28T00:37:36;7.00;;;2.92;;
15254;SDS011;7730;49.610;11.136;2023-12-28T00:40:03;5.43;;;2.47;;
15254;SDS011;7730;49.610;11.136;2023-12-28T00:42:31;4.45;;;2.38;;
15254;SDS011;7730;49.610;11.136;2023-12-28T00:44:58;5.47;;;2.67;;
15254;SDS011;7730;49.610;11.136;2023-12-28T00:47:25;7.17;;;2.60;;
15254;SDS011;7730;49.610;11.136;2023-12-28T00:49:52;6.50;;;2.70;;
15254;SDS011;7730;49.610;11.136;2023-12-28T00:52:19;6.27;;;2.73;;
15254;SDS011;7730;49.610;11.136;2023-12-28T00:54:46;6.77;;;2.80;;
15254;SDS011;7730;49.610;11.136;2023-12-28T00:57:13;4.43;;;2.40;;
15254;SDS011;7730;49.610;11.136;2023-12-28T00:59:42;4.45;;;2.47;;
15254;SDS011;7730;49.610;11.136;2023-12-28T01:02:09;5.70;;;2.63;;
15254;SDS011;7730;49.610;11.136;2023-12-28T01:04:36;4.75;;;2.42;;
15254;SDS011;7730;49.610;11.136;2023-12-28T01:07:03;8.27;;;2.60;;
15254;SDS011;7730;49.610;11.136;2023-12-28T01:09:31;4.77;;;2.50;;
15254;SDS011;7730;49.610;11.136;2023-12-28T01:11:58;7.10;;;2.65;;
15254;SDS011;7730;49.610;11.136;2023-12-28T01:14:25;5.00;;;2.50;;
15254;SDS011;7730;49.610;11.136;2023-12-28T01:16:53;5.75;;;2.53;;
15254;SDS011;7730;49.610;11.136;2023-12-28T01:19:20;5.83;;;2.60;;
15254;SDS011;7730;49.610;11.136;2023-12-28T01:21:48;6.45;;;2.60;;
15254;SDS011;7730;49.610;11.136;2023-12-28T01:24:15;7.75;;;3.50;;
15254;SDS011;7730;49.610;11.136;2023-12-28T01:26:42;5.73;;;2.73;;
15254;SDS011;7730;49.610;11.136;2023-12-28T01:29:09;4.27;;;2.37;;
15254;SDS011;7730;49.610;11.136;2023-12-28T01:31:36;6.05;;;2.80;;
15254;SDS011;7730;49.610;11.136;2023-12-28T01:34:06;6.55;;;2.40;;
15254;SDS011;7730;49.610;11.136;2023-12-28T01:36:34;5.80;;;3.25;;
15254;SDS011;7730;49.610;11.136;2023-12-28T01:39:01;5.00;;;2.77;;
15254;SDS011;7730;49.610;11.136;2023-12-28T01:41:28;5.37;;;2.53;;
15254;SDS011;7730;49.610;11.136;2023-12-28T01:43:55;5.57;;;2.58;;
15254;SDS011;7730;49.610;11.136;2023-12-28T01:46:22;5.40;;;2.60;;
15254;SDS011;7730;49.610;11.136;2023-12-28T01:48:50;5.07;;;2.43;;
15254;SDS011;7730;49.610;11.136;2023-12-28T01:51:18;6.90;;;2.67;;
15254;SDS011;7730;49.610;11.136;2023-12-28T01:53:46;6.57;;;2.40;;
15254;SDS011;7730;49.610;11.136;2023-12-28T01:56:14;4.13;;;2.23;;
15254;SDS011;7730;49.610;11.136;2023-12-28T01:58:41;5.07;;;2.25;;
15254;SDS011;7730;49.610;11.136;2023-12-28T02:01:09;5.30;;;2.53;;
15254;SDS011;7730;49.610;11.136;2023-12-28T02:03:37;6.00;;;2.47;;
15254;SDS011;7730;49.610;11.136;2023-12-28T02:06:04;5.33;;;2.73;;
15254;SDS011;7730;49.610;11.136;2023-12-28T02:08:34;7.30;;;2.60;;
15254;SDS011;7730;49.610;11.136;2023-12-28T02:11:01;4.93;;;2.55;;
15254;SDS011;7730;49.610;11.136;2023-12-28T02:13:28;6.07;;;2.67;;
15254;SDS011;7730;49.610;11.136;2023-12-28T02:15:56;3.97;;;2.40;;
15254;SDS011;7730;49.610;11.136;2023-12-28T02:18:26;5.87;;;2.60;;
15254;SDS011;7730;49.610;11.136;2023-12-28T02:20:55;4.40;;;2.40;;
15254;SDS011;7730;49.610;11.136;2023-12-28T02:23:24;5.07;;;2.70;;
15254;SDS011;7730;49.610;11.136;2023-12-28T02:25:52;6.57;;;2.80;;
15254;SDS011;7730;49.610;11.136;2023-12-28T02:28:19;5.83;;;2.60;;
15254;SDS011;7730;49.610;11.136;2023-12-28T02:30:46;6.17;;;2.40;;
15254;SDS011;7730;49.610;11.136;2023-12-28T02:33:15;4.50;;;2.33;;
15254;SDS011;7730;49.610;11.136;2023-12-28T02:35:50;7.03;;;2.40;;
15254;SDS011;7730;49.610;11.136;2023-12-28T02:38:18;6.07;;;2.50;;
15254;SDS011;7730;49.610;11.136;2023-12-28T02:40:46;4.77;;;2.30;;
15254;SDS011;7730;49.610;11.136;2023-12-28T02:43:15;4.90;;;2.30;;
15254;SDS011;7730;49.610;11.136;2023-12-28T02:45:42;4.75;;;2.40;;
15254;SDS011;7730;49.610;11.136;2023-12-28T02:48:09;4.73;;;2.40;;
15254;SDS011;7730;49.610;11.136;2023-12-28T02:50:36;3.58;;;2.10;;
15254;SDS011;7730;49.610;11.136;2023-12-28T02:53:03;5.87;;;2.50;;
15254;SDS011;7730;49.610;11.136;2023-12-28T02:55:30;5.00;;;2.97;;
15254;SDS011;7730;49.610;11.136;2023-12-28T02:57:58;5.78;;;2.38;;
15254;SDS011;7730;49.610;11.136;2023-12-28T03:00:26;5.72;;;2.90;;
15254;SDS011;7730;49.610;11.136;2023-12-28T03:02:53;6.77;;;2.80;;
15254;SDS011;7730;49.610;11.136;2023-12-28T03:05:20;5.33;;;2.63;;
15254;SDS011;7730;49.610;11.136;2023-12-28T03:07:48;4.22;;;2.50;;
15254;SDS011;7730;49.610;11.136;2023-12-28T03:10:15;5.53;;;2.40;;
15254;SDS011;7730;49.610;11.136;2023-12-28T03:12:42;5.83;;;2.50;;
15254;SDS011;7730;49.610;11.136;2023-12-28T03:15:09;4.80;;;2.43;;
15254;SDS011;7730;49.610;11.136;2023-12-28T03:17:37;4.53;;;2.30;;
15254;SDS011;7730;49.610;11.136;2023-12-28T03:20:04;5.03;;;2.40;;
15254;SDS011;7730;49.610;11.136;2023-12-28T03:22:32;6.25;;;2.50;;
15254;SDS011;7730;49.610;11.136;2023-12-28T03:24:59;4.07;;;2.30;;
15254;SDS011;7730;49.610;11.136;2023-12-28T03:27:26;5.67;;;2.43;;
15254;SDS011;7730;49.610;11.136;2023-12-28T03:29:53;5.23;;;2.50;;
15254;SDS011;7730;49.610;11.136;2023-12-28T03:32:19;4.23;;;2.40;;
15254;SDS011;7730;49.610;11.136;2023-12-28T03:34:48;4.77;;;2.43;;
15254;SDS011;7730;49.610;11.136;2023-12-28T03:37:15;5.80;;;2.40;;
15254;SDS011;7730;49.610;11.136;2023-12-28T03:39:42;4.37;;;2.30;;
15254;SDS011;7730;49.610;11.136;2023-12-28T03:42:10;5.27;;;2.33;;
15254;SDS011;7730;49.610;11.136;2023-12-28T03:44:37;3.40;;;2.10;;
15254;SDS011;7730;49.610;11.136;2023-12-28T03:47:05;5.07;;;2.33;;
15254;SDS011;7730;49.610;11.136;2023-12-28T03:49:32;3.67;;;2.10;;
15254;SDS011;7730;49.610;11.136;2023-12-28T03:52:00;5.45;;;2.40;;
15254;SDS011;7730;49.610;11.136;2023-12-28T03:54:27;5.97;;;2.30;;
15254;SDS011;7730;49.610;11.136;2023-12-28T03:56:54;4.93;;;2.30;;
15254;SDS011;7730;49.610;11.136;2023-12-28T03:59:22;5.13;;;2.50;;
15254;SDS011;7730;49.610;11.136;2023-12-28T04:01:49;4.93;;;2.40;;
15254;SDS011;7730;49.610;11.136;2023-12-28T04:04:16;3.87;;;2.30;;
15254;SDS011;7730;49.610;11.136;2023-12-28T04:06:43;5.17;;;2.37;;
15254;SDS011;7730;49.610;11.136;2023-12-28T04:09:12;4.73;;;2.30;;
15254;SDS011;7730;49.610;11.136;2023-12-28T04:11:39;4.93;;;2.40;;
15254;SDS011;7730;49.610;11.136;2023-12-28T04:14:07;6.83;;;2.40;;
15254;SDS011;7730;49.610;11.136;2023-12-28T04:16:34;5.83;;;2.67;;
15254;SDS011;7730;49.610;11.136;2023-12-28T04:19:01;5.30;;;2.58;;
15254;SDS011;7730;49.610;11.136;2023-12-28T04:21:28;5.67;;;2.50;;
15254;SDS011;7730;49.610;11.136;2023-12-28T04:23:55;4.97;;;2.30;;
15254;SDS011;7730;49.610;11.136;2023-12-28T04:26:24;4.80;;;2.30;;
15254;SDS011;7730;49.610;11.136;2023-12-28T04:28:51;6.70;;;2.57;;
15254;SDS011;7730;49.610;11.136;2023-12-28T04:31:18;5.80;;;2.43;;
15254;SDS011;7730;49.610;11.136;2023-12-28T04:33:45;5.27;;;2.30;;
15254;SDS011;7730;49.610;11.136;2023-12-28T04:36:11;4.40;;;2.40;;
15254;SDS011;7730;49.610;11.136;2023-12-28T04:38:38;4.55;;;2.22;;
15254;SDS011;7730;49.610;11.136;2023-12-28T04:41:06;4.90;;;2.45;;
15254;SDS011;7730;49.610;11.136;2023-12-28T04:43:34;4.40;;;2.40;;
15254;SDS011;7730;49.610;11.136;2023-12-28T04:46:04;3.33;;;2.28;;
15254;SDS011;7730;49.610;11.136;2023-12-28T04:48:31;5.63;;;2.30;;
15254;SDS011;7730;49.610;11.136;2023-12-28T04:51:01;4.90;;;2.35;;
15254;SDS011;7730;49.610;11.136;2023-12-28T04:53:28;6.20;;;2.38;;
15254;SDS011;7730;49.610;11.136;2023-12-28T04:55:55;4.63;;;2.40;;
15254;SDS011;7730;49.610;11.136;2023-12-28T04:58:22;4.35;;;2.35;;
15254;SDS011;7730;49.610;11.136;2023-12-28T05:00:51;4.83;;;2.30;;
15254;SDS011;7730;49.610;11.136;2023-12-28T05:03:18;4.15;;;2.40;;
15254;SDS011;7730;49.610;11.136;2023-12-28T05:05:45;4.67;;;2.40;;
15254;SDS011;7730;49.610;11.136;2023-12-28T05:08:12;3.80;;;2.22;;
15254;SDS011;7730;49.610;11.136;2023-12-28T05:10:39;5.43;;;2.50;;
15254;SDS011;7730;49.610;11.136;2023-12-28T05:13:05;4.00;;;2.17;;
15254;SDS011;7730;49.610;11.136;2023-12-28T05:15:32;4.18;;;2.30;;
15254;SDS011;7730;49.610;11.136;2023-12-28T05:18:00;4.90;;;2.47;;
15254;SDS011;7730;49.610;11.136;2023-12-28T05:20:27;4.87;;;2.40;;
15254;SDS011;7730;49.610;11.136;2023-12-28T05:22:54;6.00;;;2.37;;
15254;SDS011;7730;49.610;11.136;2023-12-28T05:25:21;6.00;;;2.40;;
15254;SDS011;7730;49.610;11.136;2023-12-28T05:27:48;5.33;;;2.47;;
15254;SDS011;7730;49.610;11.136;2023-12-28T05:30:15;5.07;;;2.40;;
15254;SDS011;7730;49.610;11.136;2023-12-28T05:32:42;4.60;;;2.40;;
15254;SDS011;7730;49.610;11.136;2023-12-28T05:35:10;5.90;;;2.60;;
15254;SDS011;7730;49.610;11.136;2023-12-28T05:37:37;5.93;;;2.40;;
15254;SDS011;7730;49.610;11.136;2023-12-28T05:40:05;4.57;;;2.40;;
15254;SDS011;7730;49.610;11.136;2023-12-28T05:42:34;5.32;;;2.38;;
15254;SDS011;7730;49.610;11.136;2023-12-28T05:45:02;5.40;;;2.57;;
15254;SDS011;7730;49.610;11.136;2023-12-28T05:47:29;4.07;;;2.33;;
15254;SDS011;7730;49.610;11.136;2023-12-28T05:49:56;5.10;;;2.33;;
15254;SDS011;7730;49.610;11.136;2023-12-28T05:52:25;5.07;;;2.27;;
15254;SDS011;7730;49.610;11.136;2023-12-28T05:54:52;3.83;;;2.30;;
15254;SDS011;7730;49.610;11.136;2023-12-28T05:57:20;5.13;;;2.40;;
15254;SDS011;7730;49.610;11.136;2023-12-28T05:59:47;6.47;;;2.50;;
15254;SDS011;7730;49.610;11.136;2023-12-28T06:02:14;4.57;;;2.37;;
15254;SDS011;7730;49.610;11.136;2023-12-28T06:04:41;6.37;;;2.50;;
15254;SDS011;7730;49.610;11.136;2023-12-28T06:07:08;4.83;;;2.20;;
15254;SDS011;7730;49.610;11.136;2023-12-28T06:09:36;4.90;;;2.60;;
15254;SDS011;7730;49.610;11.136;2023-12-28T06:12:04;6.30;;;2.30;;
15254;SDS011;7730;49.610;11.136;2023-12-28T06:14:31;6.03;;;2.60;;
15254;SDS011;7730;49.610;11.136;2023-12-28T06:16:58;5.37;;;2.50;;
15254;SDS011;7730;49.610;11.136;2023-12-28T06:19:25;4.10;;;2.30;;
15254;SDS011;7730;49.610;11.136;2023-12-28T06:21:52;4.87;;;2.40;;
15254;SDS011;7730;49.610;11.136;2023-12-28T06:24:20;4.67;;;2.40;;
15254;SDS011;7730;49.610;11.136;2023-12-28T06:26:48;5.20;;;2.23;;
15254;SDS011;7730;49.610;11.136;2023-12-28T06:29:15;7.50;;;2.60;;
15254;SDS011;7730;49.610;11.136;2023-12-28T06:31:42;5.93;;;2.57;;
15254;SDS011;7730;49.610;11.136;2023-12-28T06:34:09;5.65;;;2.50;;
15254;SDS011;7730;49.610;11.136;2023-12-28T06:36:36;7.40;;;3.20;;
15254;SDS011;7730;49.610;11.136;2023-12-28T06:39:03;4.60;;;2.60;;
15254;SDS011;7730;49.610;11.136;2023-12-28T06:41:30;6.03;;;2.63;;
15254;SDS011;7730;49.610;11.136;2023-12-28T06:43:59;4.63;;;2.53;;
15254;SDS011;7730;49.610;11.136;2023-12-28T06:46:26;5.40;;;2.60;;
15254;SDS011;7730;49.610;11.136;2023-12-28T06:48:53;5.23;;;2.73;;
15254;SDS011;7730;49.610;11.136;2023-12-28T06:51:20;4.65;;;2.33;;
15254;SDS011;7730;49.610;11.136;2023-12-28T06:53:48;5.00;;;2.60;;
15254;SDS011;7730;49.610;11.136;2023-12-28T06:56:15;5.23;;;2.40;;
15254;SDS011;7730;49.610;11.136;2023-12-28T06:58:42;5.00;;;2.30;;
15254;SDS011;7730;49.610;11.136;2023-12-28T07:01:16;4.97;;;2.40;;
15254;SDS011;7730;49.610;11.136;2023-12-28T07:03:43;5.93;;;2.50;;
15254;SDS011;7730;49.610;11.136;2023-12-28T07:06:10;6.50;;;2.57;;
15254;SDS011;7730;49.610;11.136;2023-12-28T07:08:37;6.03;;;2.70;;
15254;SDS011;7730;49.610;11.136;2023-12-28T07:11:04;6.33;;;2.43;;
15254;SDS011;7730;49.610;11.136;2023-12-28T07:13:31;6.07;;;2.63;;
15254;SDS011;7730;49.610;11.136;2023-12-28T07:15:58;4.73;;;2.30;;
15254;SDS011;7730;49.610;11.136;2023-12-28T07:18:28;6.03;;;2.43;;
15254;SDS011;7730;49.610;11.136;2023-12-28T07:20:55;6.00;;;2.57;;
15254;SDS011;7730;49.610;11.136;2023-12-28T07:23:22;6.60;;;2.70;;
15254;SDS011;7730;49.610;11.136;2023-12-28T07:25:49;6.47;;;2.33;;
15254;SDS011;7730;49.610;11.136;2023-12-28T07:28:16;4.50;;;2.30;;
15254;SDS011;7730;49.610;11.136;2023-12-28T07:30:43;5.77;;;2.70;;
15254;SDS011;7730;49.610;11.136;2023-12-28T07:33:10;4.57;;;2.40;;
15254;SDS011;7730;49.610;11.136;2023-12-28T07:35:39;8.17;;;3.10;;
15254;SDS011;7730;49.610;11.136;2023-12-28T07:38:06;6.10;;;2.70;;
15254;SDS011;7730;49.610;11.136;2023-12-28T07:40:33;6.00;;;2.70;;
15254;SDS011;7730;49.610;11.136;2023-12-28T07:43:01;7.47;;;2.80;;
15254;SDS011;7730;49.610;11.136;2023-12-28T07:45:31;6.13;;;2.70;;
15254;SDS011;7730;49.610;11.136;2023-12-28T07:47:59;6.60;;;2.80;;
15254;SDS011;7730;49.610;11.136;2023-12-28T07:50:25;9.93;;;3.20;;
15254;SDS011;7730;49.610;11.136;2023-12-28T07:52:54;6.70;;;2.70;;
15254;SDS011;7730;49.610;11.136;2023-12-28T07:55:28;6.43;;;2.70;;
15254;SDS011;7730;49.610;11.136;2023-12-28T07:57:55;6.00;;;2.47;;
15254;SDS011;7730;49.610;11.136;2023-12-28T08:00:22;5.87;;;2.70;;
15254;SDS011;7730;49.610;11.136;2023-12-28T08:02:49;5.93;;;2.67;;
15254;SDS011;7730;49.610;11.136;2023-12-28T08:05:16;5.50;;;2.60;;
15254;SDS011;7730;49.610;11.136;2023-12-28T08:07:43;6.07;;;2.50;;
15254;SDS011;7730;49.610;11.136;2023-12-28T08:10:12;9.60;;;3.20;;
15254;SDS011;7730;49.610;11.136;2023-12-28T08:12:39;8.00;;;3.33;;
15254;SDS011;7730;49.610;11.136;2023-12-28T08:15:09;8.90;;;3.20;;
15254;SDS011;7730;49.610;11.136;2023-12-28T08:17:36;8.63;;;3.77;;
15254;SDS011;7730;49.610;11.136;2023-12-28T08:20:03;9.87;;;3.73;;
15254;SDS011;7730;49.610;11.136;2023-12-28T08:22:30;9.00;;;3.40;;
15254;SDS011;7730;49.610;11.136;2023-12-28T08:24:58;10.35;;;3.90;;
15254;SDS011;7730;49.610;11.136;2023-12-28T08:27:26;9.10;;;3.20;;
15254;SDS011;7730;49.610;11.136;2023-12-28T08:29:54;6.73;;;2.83;;
15254;SDS011;7730;49.610;11.136;2023-12-28T08:32:21;7.47;;;2.87;;
15254;SDS011;7730;49.610;11.136;2023-12-28T08:34:48;5.43;;;2.70;;
15254;SDS011;7730;49.610;11.136;2023-12-28T08:37:15;7.07;;;2.80;;
15254;SDS011;7730;49.610;11.136;2023-12-28T08:39:42;4.60;;;2.50;;
15254;SDS011;7730;49.610;11.136;2023-12-28T08:42:09;6.17;;;2.70;;
15254;SDS011;7730;49.610;11.136;2023-12-28T08:44:40;6.63;;;2.97;;
15254;SDS011;7730;49.610;11.136;2023-12-28T08:47:07;5.47;;;2.90;;
15254;SDS011;7730;49.610;11.136;2023-12-28T08:49:34;7.10;;;3.10;;
15254;SDS011;7730;49.610;11.136;2023-12-28T08:52:01;6.77;;;3.20;;
15254;SDS011;7730;49.610;11.136;2023-12-28T08:54:28;9.07;;;3.77;;
15254;SDS011;7730;49.610;11.136;2023-12-28T08:56:55;9.13;;;3.37;;
15254;SDS011;7730;49.610;11.136;2023-12-28T08:59:23;7.87;;;3.47;;
15254;SDS011;7730;49.610;11.136;2023-12-28T09:01:54;10.00;;;3.47;;
15254;SDS011;7730;49.610;11.136;2023-12-28T09:04:22;8.73;;;3.20;;
15254;SDS011;7730;49.610;11.136;2023-12-28T09:06:49;6.30;;;2.80;;
15254;SDS011;7730;49.610;11.136;2023-12-28T09:09:16;6.23;;;2.50;;
15254;SDS011;7730;49.610;11.136;2023-12-28T09:11:43;5.40;;;2.67;;
15254;SDS011;7730;49.610;11.136;2023-12-28T09:14:10;5.13;;;2.47;;
15254;SDS011;7730;49.610;11.136;2023-12-28T09:16:37;5.63;;;2.50;;
15254;SDS011;7730;49.610;11.136;2023-12-28T09:19:10;4.85;;;2.58;;
15254;SDS011;7730;49.610;11.136;2023-12-28T09:21:37;5.53;;;2.53;;
15254;SDS011;7730;49.610;11.136;2023-12-28T09:24:04;5.97;;;2.60;;
15254;SDS011;7730;49.610;11.136;2023-12-28T09:26:32;6.57;;;2.83;;
15254;SDS011;7730;49.610;11.136;2023-12-28T09:28:59;6.90;;;2.90;;
15254;SDS011;7730;49.610;11.136;2023-12-28T09:31:26;7.05;;;2.70;;
15254;SDS011;7730;49.610;11.136;2023-12-28T09:34:07;5.20;;;2.75;;
15254;SDS011;7730;49.610;11.136;2023-12-28T09:36:40;7.33;;;3.00;;
15254;SDS011;7730;49.610;11.136;2023-12-28T09:39:07;8.10;;;3.13;;
15254;SDS011;7730;49.610;11.136;2023-12-28T09:41:35;5.70;;;2.80;;
15254;SDS011;7730;49.610;11.136;2023-12-28T09:44:05;6.70;;;3.07;;
15254;SDS011;7730;49.610;11.136;2023-12-28T09:46:34;7.43;;;2.95;;
15254;SDS011;7730;49.610;11.136;2023-12-28T09:49:01;5.82;;;2.80;;
15254;SDS011;7730;49.610;11.136;2023-12-28T09:51:31;6.32;;;2.90;;
15254;SDS011;7730;49.610;11.136;2023-12-28T09:53:59;5.72;;;2.70;;
15254;SDS011;7730;49.610;11.136;2023-12-28T09:56:27;6.60;;;2.80;;
15254;SDS011;7730;49.610;11.136;2023-12-28T09:58:56;5.77;;;2.70;;
15254;SDS011;7730;49.610;11.136;2023-12-28T10:01:23;5.93;;;2.70;;
15254;SDS011;7730;49.610;11.136;2023-12-28T10:03:52;7.07;;;2.90;;
15254;SDS011;7730;49.610;11.136;2023-12-28T10:06:19;6.72;;;2.70;;
15254;SDS011;7730;49.610;11.136;2023-12-28T10:08:46;5.57;;;2.70;;
15254;SDS011;7730;49.610;11.136;2023-12-28T10:11:15;5.93;;;2.93;;
15254;SDS011;7730;49.610;11.136;2023-12-28T10:13:42;6.78;;;2.83;;
15254;SDS011;7730;49.610;11.136;2023-12-28T10:16:09;7.87;;;3.07;;
15254;SDS011;7730;49.610;11.136;2023-12-28T10:18:36;6.90;;;2.80;;
15254;SDS011;7730;49.610;11.136;2023-12-28T10:21:08;5.47;;;2.70;;
15254;SDS011;7730;49.610;11.136;2023-12-28T10:23:35;6.65;;;2.70;;
15254;SDS011;7730;49.610;11.136;2023-12-28T10:26:03;5.07;;;2.42;;
15254;SDS011;7730;49.610;11.136;2023-12-28T10:28:34;7.00;;;2.83;;
15254;SDS011;7730;49.610;11.136;2023-12-28T10:31:03;6.80;;;2.78;;
15254;SDS011;7730;49.610;11.136;2023-12-28T10:33:33;5.60;;;2.73;;
15254;SDS011;7730;49.610;11.136;2023-12-28T10:36:01;6.43;;;2.67;;
15254;SDS011;7730;49.610;11.136;2023-12-28T10:38:31;7.07;;;2.63;;
15254;SDS011;7730;49.610;11.136;2023-12-28T10:41:01;7.17;;;2.87;;
15254;SDS011;7730;49.610;11.136;2023-12-28T10:43:30;8.67;;;2.83;;
15254;SDS011;7730;49.610;11.136;2023-12-28T10:46:01;6.72;;;2.90;;
15254;SDS011;7730;49.610;11.136;2023-12-28T10:48:30;7.33;;;3.00;;
15254;SDS011;7730;49.610;11.136;2023-12-28T10:51:01;7.10;;;3.00;;
15254;SDS011;7730;49.610;11.136;2023-12-28T10:53:32;6.90;;;2.92;;
15254;SDS011;7730;49.610;11.136;2023-12-28T10:56:05;7.90;;;2.88;;
15254;SDS011;7730;49.610;11.136;2023-12-28T10:58:37;6.30;;;2.83;;
15254;SDS011;7730;49.610;11.136;2023-12-28T11:01:07;5.38;;;2.60;;
15254;SDS011;7730;49.610;11.136;2023-12-28T11:03:37;8.38;;;2.92;;
15254;SDS011;7730;49.610;11.136;2023-12-28T11:06:04;7.83;;;2.90;;
15254;SDS011;7730;49.610;11.136;2023-12-28T11:08:32;5.83;;;2.70;;
15254;SDS011;7730;49.610;11.136;2023-12-28T11:10:59;6.68;;;2.80;;
15254;SDS011;7730;49.610;11.136;2023-12-28T11:13:28;7.37;;;3.10;;
15254;SDS011;7730;49.610;11.136;2023-12-28T11:15:56;7.10;;;2.70;;
15254;SDS011;7730;49.610;11.136;2023-12-28T11:18:25;5.97;;;2.80;;
15254;SDS011;7730;49.610;11.136;2023-12-28T11:20:53;6.10;;;2.78;;
15254;SDS011;7730;49.610;11.136;2023-12-28T11:23:20;7.78;;;3.03;;
15254;SDS011;7730;49.610;11.136;2023-12-28T11:25:47;10.95;;;2.90;;
15254;SDS011;7730;49.610;11.136;2023-12-28T11:28:16;7.57;;;2.80;;
15254;SDS011;7730;49.610;11.136;2023-12-28T11:30:44;7.57;;;2.90;;
15254;SDS011;7730;49.610;11.136;2023-12-28T11:33:13;6.55;;;2.90;;
15254;SDS011;7730;49.610;11.136;2023-12-28T11:35:43;6.67;;;2.70;;
15254;SDS011;7730;49.610;11.136;2023-12-28T11:38:10;6.35;;;2.83;;
15254;SDS011;7730;49.610;11.136;2023-12-28T11:40:41;6.35;;;2.80;;
15254;SDS011;7730;49.610;11.136;2023-12-28T11:43:15;7.50;;;2.85;;
15254;SDS011;7730;49.610;11.136;2023-12-28T11:45:47;10.05;;;2.88;;
15254;SDS011;7730;49.610;11.136;2023-12-28T11:48:22;8.25;;;3.22;;
15254;SDS011;7730;49.610;11.136;2023-12-28T11:50:54;7.45;;;2.90;;
15254;SDS011;7730;49.610;11.136;2023-12-28T11:53:22;7.13;;;2.92;;
15254;SDS011;7730;49.610;11.136;2023-12-28T11:55:49;7.50;;;3.20;;
15254;SDS011;7730;49.610;11.136;2023-12-28T11:58:16;9.85;;;3.55;;
15254;SDS011;7730;49.610;11.136;2023-12-28T12:00:44;10.18;;;3.70;;
15254;SDS011;7730;49.610;11.136;2023-12-28T12:03:11;9.37;;;3.43;;
15254;SDS011;7730;49.610;11.136;2023-12-28T12:05:38;10.67;;;3.53;;
15254;SDS011;7730;49.610;11.136;2023-12-28T12:08:07;9.25;;;3.47;;
15254;SDS011;7730;49.610;11.136;2023-12-28T12:10:38;10.60;;;4.07;;
15254;SDS011;7730;49.610;11.136;2023-12-28T12:13:05;10.25;;;3.90;;
15254;SDS011;7730;49.610;11.136;2023-12-28T12:15:32;10.85;;;4.15;;
15254;SDS011;7730;49.610;11.136;2023-12-28T12:18:00;11.68;;;4.18;;
15254;SDS011;7730;49.610;11.136;2023-12-28T12:20:27;9.23;;;3.97;;
15254;SDS011;7730;49.610;11.136;2023-12-28T12:22:57;11.10;;;4.30;;
15254;SDS011;7730;49.610;11.136;2023-12-28T12:25:25;11.82;;;4.13;;
15254;SDS011;7730;49.610;11.136;2023-12-28T12:27:54;7.10;;;3.30;;
15254;SDS011;7730;49.610;11.136;2023-12-28T12:30:21;10.00;;;3.50;;
15254;SDS011;7730;49.610;11.136;2023-12-28T12:32:48;9.15;;;3.60;;
15254;SDS011;7730;49.610;11.136;2023-12-28T12:35:15;10.20;;;3.67;;
15254;SDS011;7730;49.610;11.136;2023-12-28T12:37:44;11.70;;;3.70;;
15254;SDS011;7730;49.610;11.136;2023-12-28T12:40:14;12.88;;;3.63;;
15254;SDS011;7730;49.610;11.136;2023-12-28T12:42:42;7.80;;;3.27;;
15254;SDS011;7730;49.610;11.136;2023-12-28T12:45:09;8.60;;;3.17;;
15254;SDS011;7730;49.610;11.136;2023-12-28T12:47:36;8.23;;;3.30;;
15254;SDS011;7730;49.610;11.136;2023-12-28T12:50:05;8.77;;;3.33;;
15254;SDS011;7730;49.610;11.136;2023-12-28T12:52:32;8.30;;;3.47;;
15254;SDS011;7730;49.610;11.136;2023-12-28T12:54:59;8.95;;;3.38;;
15254;SDS011;7730;49.610;11.136;2023-12-28T12:57:26;7.10;;;3.13;;
15254;SDS011;7730;49.610;11.136;2023-12-28T12:59:55;6.65;;;2.88;;
15254;SDS011;7730;49.610;11.136;2023-12-28T13:02:22;8.07;;;2.92;;
15254;SDS011;7730;49.610;11.136;2023-12-28T13:04:51;5.63;;;2.70;;
15254;SDS011;7730;49.610;11.136;2023-12-28T13:07:21;6.25;;;2.75;;
15254;SDS011;7730;49.610;11.136;2023-12-28T13:09:48;5.90;;;2.60;;
15254;SDS011;7730;49.610;11.136;2023-12-28T13:12:15;6.15;;;2.80;;
15254;SDS011;7730;49.610;11.136;2023-12-28T13:14:42;6.88;;;2.92;;
15254;SDS011;7730;49.610;11.136;2023-12-28T13:17:12;5.60;;;2.75;;
15254;SDS011;7730;49.610;11.136;2023-12-28T13:19:40;6.70;;;2.90;;
15254;SDS011;7730;49.610;11.136;2023-12-28T13:22:07;5.78;;;2.80;;
15254;SDS011;7730;49.610;11.136;2023-12-28T13:24:36;7.97;;;3.10;;
15254;SDS011;7730;49.610;11.136;2023-12-28T13:27:03;6.17;;;2.80;;
15254;SDS011;7730;49.610;11.136;2023-12-28T13:29:30;7.85;;;2.90;;
15254;SDS011;7730;49.610;11.136;2023-12-28T13:31:57;8.30;;;3.10;;
15254;SDS011;7730;49.610;11.136;2023-12-28T13:34:25;7.05;;;3.00;;
15254;SDS011;7730;49.610;11.136;2023-12-28T13:36:53;7.30;;;2.90;;
15254;SDS011;7730;49.610;11.136;2023-12-28T13:39:20;5.07;;;2.67;;
15254;SDS011;7730;49.610;11.136;2023-12-28T13:41:52;8.23;;;3.10;;
15254;SDS011;7730;49.610;11.136;2023-12-28T13:44:21;8.07;;;3.10;;
15254;SDS011;7730;49.610;11.136;2023-12-28T13:46:48;9.13;;;3.30;;
15254;SDS011;7730;49.610;11.136;2023-12-28T13:49:15;15.03;;;6.37;;
15254;SDS011;7730;49.610;11.136;2023-12-28T13:51:44;12.48;;;5.13;;
15254;SDS011;7730;49.610;11.136;2023-12-28T13:54:11;12.40;;;5.40;;
15254;SDS011;7730;49.610;11.136;2023-12-28T13:56:38;9.77;;;4.10;;
15254;SDS011;7730;49.610;11.136;2023-12-28T13:59:06;9.07;;;3.60;;
15254;SDS011;7730;49.610;11.136;2023-12-28T14:01:34;10.30;;;4.10;;
15254;SDS011;7730;49.610;11.136;2023-12-28T14:04:03;9.60;;;3.92;;
15254;SDS011;7730;49.610;11.136;2023-12-28T14:06:31;10.98;;;3.97;;
15254;SDS011;7730;49.610;11.136;2023-12-28T14:08:59;9.18;;;3.80;;
15254;SDS011;7730;49.610;11.136;2023-12-28T14:11:26;12.88;;;5.28;;
15254;SDS011;7730;49.610;11.136;2023-12-28T14:13:53;9.45;;;3.90;;
15254;SDS011;7730;49.610;11.136;2023-12-28T14:16:20;10.13;;;4.05;;
15254;SDS011;7730;49.610;11.136;2023-12-28T14:18:47;10.18;;;3.97;;
15254;SDS011;7730;49.610;11.136;2023-12-28T14:21:14;9.60;;;3.80;;
15254;SDS011;7730;49.610;11.136;2023-12-28T14:23:41;11.57;;;4.13;;
15254;SDS011;7730;49.610;11.136;2023-12-28T14:26:11;9.43;;;3.50;;
15254;SDS011;7730;49.610;11.136;2023-12-28T14:28:39;8.80;;;3.53;;
15254;SDS011;7730;49.610;11.136;2023-12-28T14:31:07;10.05;;;3.80;;
15254;SDS011;7730;49.610;11.136;2023-12-28T14:33:34;9.95;;;3.70;;
15254;SDS011;7730;49.610;11.136;2023-12-28T14:36:01;9.30;;;3.53;;
15254;SDS011;7730;49.610;11.136;2023-12-28T14:38:29;8.70;;;3.60;;
15254;SDS011;7730;49.610;11.136;2023-12-28T14:40:57;8.38;;;3.80;;
15254;SDS011;7730;49.610;11.136;2023-12-28T14:43:28;8.82;;;3.85;;
15254;SDS011;7730;49.610;11.136;2023-12-28T14:45:55;13.27;;;4.90;;
15254;SDS011;7730;49.610;11.136;2023-12-28T14:48:22;11.55;;;4.68;;
15254;SDS011;7730;49.610;11.136;2023-12-28T14:50:49;11.73;;;4.57;;